Abisko, Sweden

6:08 AM CEST on September 03, 2014 (GMT +0200)
Bardu | Change Station
CLOSE
Current Station
Personal Weather Station
Location: Bardu, TROMS
Elevation: 1663 ft
Nearby Weather Stations

Elev 1663 ft 68.66 °N, 18.88 °E | Updated 8 minutes ago

Mostly Cloudy
Mostly Cloudy
47.7 °F
Feels Like 48 °F
N
0.0
Wind Variable Wind from West
Gusts 2.0 mph

Today
High -- | Low -- °F
--% Chance of Precip.
Yesterday
High -- | Low -- °F
Precip. -- in
5:15 AM 8:09 PM
First Quarter, 58% visible
Pressure 29.89 in
Visibility 6.2 miles
Clouds Few 2000 ft
Mostly Cloudy 4000 ft
Windchill 48 °F
Dew Point 46 °F
Humidity 92%
Rainfall 0.02 in
Snow Depth Not available.
UV 0 out of 12
Pollen Not available.
Air Quality Not available.
Flu Activity Not available.
METAR ENDU 030350Z 10004KT 070V130 9999 VCSH FEW020 BKN040 11/10 Q1012

More Conditions Fewer Conditions

Pressure 29.89 in
Visibility 6.2 miles
Clouds Few 2000 ft
Mostly Cloudy 4000 ft
Windchill 48 °F
Dew Point 46 °F
Humidity 92%
Rainfall 0.02 in
Snow Depth Not available.
UV 0 out of 12
Pollen Not available.
Air Quality Not available.
Flu Activity Not available.
METAR ENDU 030350Z 10004KT 070V130 9999 VCSH FEW020 BKN040 11/10 Q1012

More Conditions Fewer Conditions

10-Day Weather Forecast

Almanac

Astronomy

Sep. 03, 2014 Rise Set
Actual Time 5:15 AM CEST 8:09 PM CEST
Civil Twilight 4:10 AM CEST 9:14 PM CEST
Nautical Twilight 2:23 AM CEST 10:56 PM CEST
Astronomical Twilight Sun does not rise Sun does not rise
Moon 5:34 PM CEST 9:52 PM CEST
Length of Visible Light 17h 04m
Length of Day
14h 54m
Tomorrow will be 8m 6s shorter.
First Quarter, 58% of the Moon is Illuminated
Today
First Quarter
Sep 8
Full
Sep 15
Last Quarter
Sep 24
New
Oct 1
First Quarter

Yesterday's Extremes

Country Highs Country Lows

Community

WunderPhotos

Upload Photos

1,749,866 photos uploaded!

Nearby

Snow Depth

Not available.

Earthquake Activity

City Distance Mag. Time & Date
No recent earthquake activity has been reported nearby.
Minimum magnitude displayed is 2.5.

Coastal Water Temperatures

Place Temperature
No Stations Reporting

Nearby Weather Stations